sensor_id;sensor_type;location;lat;lon;timestamp;P1;durP1;ratioP1;P2;durP2;ratioP2
25213;SDS011;13160;51.834;4.706;2022-09-12T00:05:19;17.02;;;15.32;;
25213;SDS011;13160;51.834;4.706;2022-09-12T00:09:37;17.13;;;15.20;;
25213;SDS011;13160;51.834;4.706;2022-09-12T00:12:52;18.70;;;16.80;;
25213;SDS011;13160;51.834;4.706;2022-09-12T00:23:46;17.65;;;15.85;;
25213;SDS011;13160;51.834;4.706;2022-09-12T00:27:37;18.80;;;16.85;;
25213;SDS011;13160;51.834;4.706;2022-09-12T00:31:20;18.60;;;16.60;;
25213;SDS011;13160;51.834;4.706;2022-09-12T00:35:11;19.77;;;17.67;;
25213;SDS011;13160;51.834;4.706;2022-09-12T00:39:31;18.98;;;16.65;;
25213;SDS011;13160;51.834;4.706;2022-09-12T00:43:08;19.70;;;17.70;;
25213;SDS011;13160;51.834;4.706;2022-09-12T00:54:36;19.70;;;17.60;;
25213;SDS011;13160;51.834;4.706;2022-09-12T01:01:37;21.27;;;18.20;;
25213;SDS011;13160;51.834;4.706;2022-09-12T01:05:26;20.17;;;18.13;;
25213;SDS011;13160;51.834;4.706;2022-09-12T01:16:58;21.88;;;19.73;;
25213;SDS011;13160;51.834;4.706;2022-09-12T01:40:30;26.27;;;21.80;;
25213;SDS011;13160;51.834;4.706;2022-09-12T01:44:13;23.30;;;20.55;;
25213;SDS011;13160;51.834;4.706;2022-09-12T01:48:10;26.35;;;22.40;;
25213;SDS011;13160;51.834;4.706;2022-09-12T01:56:35;25.02;;;22.42;;
25213;SDS011;13160;51.834;4.706;2022-09-12T02:00:36;25.73;;;22.67;;
25213;SDS011;13160;51.834;4.706;2022-09-12T02:07:34;27.92;;;23.35;;
25213;SDS011;13160;51.834;4.706;2022-09-12T02:15:03;24.27;;;21.80;;
25213;SDS011;13160;51.834;4.706;2022-09-12T02:19:02;25.05;;;22.38;;
25213;SDS011;13160;51.834;4.706;2022-09-12T02:41:27;24.52;;;22.02;;
25213;SDS011;13160;51.834;4.706;2022-09-12T02:45:00;25.92;;;23.13;;
25213;SDS011;13160;51.834;4.706;2022-09-12T02:48:26;25.23;;;22.25;;
25213;SDS011;13160;51.834;4.706;2022-09-12T02:52:08;23.85;;;21.52;;
25213;SDS011;13160;51.834;4.706;2022-09-12T03:16:13;26.40;;;22.75;;
25213;SDS011;13160;51.834;4.706;2022-09-12T03:19:20;25.27;;;22.67;;
25213;SDS011;13160;51.834;4.706;2022-09-12T03:34:51;26.73;;;23.73;;
25213;SDS011;13160;51.834;4.706;2022-09-12T03:51:17;26.70;;;23.77;;
25213;SDS011;13160;51.834;4.706;2022-09-12T03:58:30;26.10;;;23.30;;
25213;SDS011;13160;51.834;4.706;2022-09-12T04:05:58;26.48;;;23.75;;
25213;SDS011;13160;51.834;4.706;2022-09-12T04:20:45;27.75;;;24.80;;
25213;SDS011;13160;51.834;4.706;2022-09-12T04:27:10;28.52;;;25.42;;
25213;SDS011;13160;51.834;4.706;2022-09-12T04:30:51;30.98;;;26.63;;
25213;SDS011;13160;51.834;4.706;2022-09-12T04:37:36;30.00;;;26.77;;
25213;SDS011;13160;51.834;4.706;2022-09-12T04:44:54;31.50;;;26.40;;
25213;SDS011;13160;51.834;4.706;2022-09-12T04:55:39;30.10;;;26.90;;
25213;SDS011;13160;51.834;4.706;2022-09-12T04:58:45;29.98;;;26.83;;
25213;SDS011;13160;51.834;4.706;2022-09-12T05:02:31;31.25;;;27.35;;
25213;SDS011;13160;51.834;4.706;2022-09-12T05:05:20;31.15;;;27.73;;
25213;SDS011;13160;51.834;4.706;2022-09-12T05:08:17;30.08;;;26.85;;
25213;SDS011;13160;51.834;4.706;2022-09-12T05:11:14;29.45;;;26.23;;
25213;SDS011;13160;51.834;4.706;2022-09-12T05:14:38;34.78;;;28.60;;
25213;SDS011;13160;51.834;4.706;2022-09-12T05:18:13;30.83;;;27.45;;
25213;SDS011;13160;51.834;4.706;2022-09-12T05:56:20;36.92;;;31.10;;
25213;SDS011;13160;51.834;4.706;2022-09-12T05:59:33;37.20;;;32.13;;
25213;SDS011;13160;51.834;4.706;2022-09-12T06:02:32;36.72;;;31.67;;
25213;SDS011;13160;51.834;4.706;2022-09-12T06:05:35;39.17;;;31.80;;
25213;SDS011;13160;51.834;4.706;2022-09-12T06:16:26;38.47;;;33.15;;
25213;SDS011;13160;51.834;4.706;2022-09-12T06:19:31;39.50;;;33.22;;
25213;SDS011;13160;51.834;4.706;2022-09-12T06:23:10;36.15;;;32.25;;
25213;SDS011;13160;51.834;4.706;2022-09-12T06:26:54;35.15;;;31.30;;
25213;SDS011;13160;51.834;4.706;2022-09-12T06:41:43;39.83;;;34.75;;
25213;SDS011;13160;51.834;4.706;2022-09-12T06:48:54;40.50;;;36.10;;
25213;SDS011;13160;51.834;4.706;2022-09-12T06:56:01;42.60;;;36.88;;
25213;SDS011;13160;51.834;4.706;2022-09-12T07:00:05;42.78;;;36.65;;
25213;SDS011;13160;51.834;4.706;2022-09-12T07:20:43;32.47;;;28.77;;
25213;SDS011;13160;51.834;4.706;2022-09-12T07:24:27;31.88;;;27.17;;
25213;SDS011;13160;51.834;4.706;2022-09-12T07:31:07;31.20;;;27.50;;
25213;SDS011;13160;51.834;4.706;2022-09-12T09:02:15;16.15;;;11.75;;
25213;SDS011;13160;51.834;4.706;2022-09-12T09:06:24;15.70;;;11.50;;
25213;SDS011;13160;51.834;4.706;2022-09-12T09:17:40;13.88;;;11.45;;
25213;SDS011;13160;51.834;4.706;2022-09-12T09:21:08;14.27;;;11.32;;
25213;SDS011;13160;51.834;4.706;2022-09-12T09:25:02;13.25;;;10.05;;
25213;SDS011;13160;51.834;4.706;2022-09-12T09:27:58;11.60;;;9.45;;
25213;SDS011;13160;51.834;4.706;2022-09-12T09:30:46;12.00;;;10.63;;
25213;SDS011;13160;51.834;4.706;2022-09-12T09:33:19;11.63;;;9.60;;
25213;SDS011;13160;51.834;4.706;2022-09-12T09:35:58;12.30;;;8.20;;
25213;SDS011;13160;51.834;4.706;2022-09-12T09:38:38;8.95;;;7.00;;
25213;SDS011;13160;51.834;4.706;2022-09-12T09:41:18;10.13;;;7.28;;
25213;SDS011;13160;51.834;4.706;2022-09-12T09:44:12;9.45;;;7.10;;
25213;SDS011;13160;51.834;4.706;2022-09-12T09:46:40;11.60;;;8.20;;
25213;SDS011;13160;51.834;4.706;2022-09-12T09:49:10;8.50;;;7.03;;
25213;SDS011;13160;51.834;4.706;2022-09-12T09:51:40;10.18;;;7.50;;
25213;SDS011;13160;51.834;4.706;2022-09-12T09:54:12;9.27;;;7.63;;
25213;SDS011;13160;51.834;4.706;2022-09-12T09:56:47;9.93;;;7.88;;
25213;SDS011;13160;51.834;4.706;2022-09-12T09:59:16;11.43;;;7.70;;
25213;SDS011;13160;51.834;4.706;2022-09-12T10:01:48;9.32;;;7.80;;
25213;SDS011;13160;51.834;4.706;2022-09-12T10:04:21;10.63;;;7.60;;
25213;SDS011;13160;51.834;4.706;2022-09-12T10:06:52;10.13;;;7.47;;
25213;SDS011;13160;51.834;4.706;2022-09-12T10:09:24;11.65;;;8.25;;
25213;SDS011;13160;51.834;4.706;2022-09-12T10:11:55;10.27;;;7.93;;
25213;SDS011;13160;51.834;4.706;2022-09-12T10:14:28;10.40;;;8.63;;
25213;SDS011;13160;51.834;4.706;2022-09-12T10:17:24;10.85;;;8.00;;
25213;SDS011;13160;51.834;4.706;2022-09-12T10:20:01;12.40;;;8.88;;
25213;SDS011;13160;51.834;4.706;2022-09-12T10:22:50;10.23;;;8.98;;
25213;SDS011;13160;51.834;4.706;2022-09-12T10:25:19;12.57;;;9.40;;
25213;SDS011;13160;51.834;4.706;2022-09-12T10:27:53;10.38;;;8.48;;
25213;SDS011;13160;51.834;4.706;2022-09-12T10:30:23;10.70;;;8.68;;
25213;SDS011;13160;51.834;4.706;2022-09-12T10:32:55;12.23;;;8.90;;
25213;SDS011;13160;51.834;4.706;2022-09-12T10:35:42;10.52;;;7.95;;
25213;SDS011;13160;51.834;4.706;2022-09-12T10:38:16;12.77;;;9.88;;
25213;SDS011;13160;51.834;4.706;2022-09-12T10:40:56;9.57;;;8.00;;
25213;SDS011;13160;51.834;4.706;2022-09-12T10:43:29;10.45;;;8.15;;
25213;SDS011;13160;51.834;4.706;2022-09-12T10:49:18;9.45;;;7.03;;
25213;SDS011;13160;51.834;4.706;2022-09-12T10:51:54;8.43;;;6.60;;
25213;SDS011;13160;51.834;4.706;2022-09-12T10:54:26;8.00;;;6.25;;
25213;SDS011;13160;51.834;4.706;2022-09-12T10:57:08;9.48;;;6.07;;
25213;SDS011;13160;51.834;4.706;2022-09-12T11:00:17;8.60;;;6.57;;
25213;SDS011;13160;51.834;4.706;2022-09-12T11:02:56;9.27;;;6.63;;
25213;SDS011;13160;51.834;4.706;2022-09-12T11:05:35;9.13;;;7.15;;
25213;SDS011;13160;51.834;4.706;2022-09-12T11:08:20;9.65;;;5.90;;
25213;SDS011;13160;51.834;4.706;2022-09-12T11:11:04;10.70;;;6.13;;
25213;SDS011;13160;51.834;4.706;2022-09-12T11:13:47;7.65;;;5.40;;
25213;SDS011;13160;51.834;4.706;2022-09-12T11:16:28;8.07;;;5.70;;
25213;SDS011;13160;51.834;4.706;2022-09-12T11:19:19;7.57;;;5.75;;
25213;SDS011;13160;51.834;4.706;2022-09-12T11:22:18;6.95;;;5.35;;
25213;SDS011;13160;51.834;4.706;2022-09-12T11:25:16;9.02;;;6.75;;
25213;SDS011;13160;51.834;4.706;2022-09-12T11:31:00;7.32;;;5.13;;
25213;SDS011;13160;51.834;4.706;2022-09-12T11:33:44;6.75;;;5.72;;
25213;SDS011;13160;51.834;4.706;2022-09-12T11:36:26;9.73;;;5.97;;
25213;SDS011;13160;51.834;4.706;2022-09-12T11:39:07;7.03;;;5.05;;
25213;SDS011;13160;51.834;4.706;2022-09-12T11:41:42;8.15;;;5.40;;
25213;SDS011;13160;51.834;4.706;2022-09-12T11:44:17;8.95;;;5.80;;
25213;SDS011;13160;51.834;4.706;2022-09-12T11:46:49;8.27;;;5.65;;
25213;SDS011;13160;51.834;4.706;2022-09-12T11:49:25;7.40;;;5.30;;
25213;SDS011;13160;51.834;4.706;2022-09-12T11:52:02;6.85;;;5.47;;
25213;SDS011;13160;51.834;4.706;2022-09-12T11:54:38;6.40;;;4.65;;
25213;SDS011;13160;51.834;4.706;2022-09-12T11:57:19;6.43;;;3.95;;
25213;SDS011;13160;51.834;4.706;2022-09-12T11:59:56;7.53;;;4.70;;
25213;SDS011;13160;51.834;4.706;2022-09-12T12:02:32;7.35;;;4.20;;
25213;SDS011;13160;51.834;4.706;2022-09-12T12:05:18;7.95;;;3.83;;
25213;SDS011;13160;51.834;4.706;2022-09-12T12:07:51;10.48;;;4.10;;
25213;SDS011;13160;51.834;4.706;2022-09-12T12:10:26;6.07;;;4.20;;
25213;SDS011;13160;51.834;4.706;2022-09-12T12:13:17;7.10;;;3.65;;
25213;SDS011;13160;51.834;4.706;2022-09-12T12:15:49;5.40;;;3.55;;
25213;SDS011;13160;51.834;4.706;2022-09-12T12:18:22;6.28;;;3.10;;
25213;SDS011;13160;51.834;4.706;2022-09-12T12:20:54;4.70;;;3.00;;
25213;SDS011;13160;51.834;4.706;2022-09-12T12:23:26;5.82;;;3.88;;
25213;SDS011;13160;51.834;4.706;2022-09-12T12:25:57;5.30;;;3.60;;
25213;SDS011;13160;51.834;4.706;2022-09-12T12:31:26;6.22;;;3.60;;
25213;SDS011;13160;51.834;4.706;2022-09-12T12:34:18;4.60;;;3.40;;
25213;SDS011;13160;51.834;4.706;2022-09-12T12:36:54;6.00;;;4.10;;
25213;SDS011;13160;51.834;4.706;2022-09-12T12:45:57;5.25;;;3.45;;
25213;SDS011;13160;51.834;4.706;2022-09-12T12:51:47;5.32;;;3.22;;
25213;SDS011;13160;51.834;4.706;2022-09-12T12:54:28;6.32;;;3.72;;
25213;SDS011;13160;51.834;4.706;2022-09-12T12:57:16;4.93;;;3.25;;
25213;SDS011;13160;51.834;4.706;2022-09-12T13:00:27;3.92;;;2.78;;
25213;SDS011;13160;51.834;4.706;2022-09-12T13:03:01;4.85;;;3.10;;
25213;SDS011;13160;51.834;4.706;2022-09-12T13:05:37;5.25;;;2.70;;
25213;SDS011;13160;51.834;4.706;2022-09-12T13:08:08;6.00;;;3.45;;
25213;SDS011;13160;51.834;4.706;2022-09-12T13:10:55;6.68;;;3.50;;
25213;SDS011;13160;51.834;4.706;2022-09-12T13:13:30;5.57;;;3.90;;
25213;SDS011;13160;51.834;4.706;2022-09-12T13:16:03;6.00;;;3.63;;
25213;SDS011;13160;51.834;4.706;2022-09-12T13:18:39;5.07;;;3.38;;
25213;SDS011;13160;51.834;4.706;2022-09-12T13:21:11;5.00;;;3.30;;
25213;SDS011;13160;51.834;4.706;2022-09-12T13:23:41;7.00;;;3.60;;
25213;SDS011;13160;51.834;4.706;2022-09-12T13:26:11;7.13;;;3.70;;
25213;SDS011;13160;51.834;4.706;2022-09-12T13:28:42;4.82;;;3.30;;
25213;SDS011;13160;51.834;4.706;2022-09-12T13:31:13;7.57;;;3.50;;
25213;SDS011;13160;51.834;4.706;2022-09-12T13:33:51;6.32;;;3.90;;
25213;SDS011;13160;51.834;4.706;2022-09-12T13:36:29;5.03;;;3.42;;
25213;SDS011;13160;51.834;4.706;2022-09-12T13:39:16;5.88;;;3.22;;
25213;SDS011;13160;51.834;4.706;2022-09-12T13:45:11;6.03;;;3.80;;
25213;SDS011;13160;51.834;4.706;2022-09-12T13:47:44;8.13;;;3.30;;
25213;SDS011;13160;51.834;4.706;2022-09-12T13:50:16;8.35;;;3.50;;
25213;SDS011;13160;51.834;4.706;2022-09-12T13:52:49;7.97;;;3.28;;
25213;SDS011;13160;51.834;4.706;2022-09-12T13:55:26;4.70;;;2.80;;
25213;SDS011;13160;51.834;4.706;2022-09-12T13:57:58;4.38;;;2.60;;
25213;SDS011;13160;51.834;4.706;2022-09-12T14:00:29;6.05;;;2.83;;
25213;SDS011;13160;51.834;4.706;2022-09-12T14:03:00;5.05;;;2.85;;
25213;SDS011;13160;51.834;4.706;2022-09-12T14:05:54;5.93;;;3.40;;
25213;SDS011;13160;51.834;4.706;2022-09-12T14:08:24;5.30;;;3.53;;
25213;SDS011;13160;51.834;4.706;2022-09-12T14:10:52;6.32;;;3.55;;
25213;SDS011;13160;51.834;4.706;2022-09-12T14:13:21;5.10;;;3.25;;
25213;SDS011;13160;51.834;4.706;2022-09-12T14:15:52;5.35;;;3.40;;
25213;SDS011;13160;51.834;4.706;2022-09-12T14:18:25;7.13;;;3.10;;
25213;SDS011;13160;51.834;4.706;2022-09-12T14:20:58;4.05;;;2.90;;
25213;SDS011;13160;51.834;4.706;2022-09-12T14:23:36;5.25;;;2.63;;
25213;SDS011;13160;51.834;4.706;2022-09-12T14:26:08;5.93;;;2.83;;
25213;SDS011;13160;51.834;4.706;2022-09-12T14:28:38;7.13;;;3.50;;
25213;SDS011;13160;51.834;4.706;2022-09-12T14:31:19;6.80;;;3.05;;
25213;SDS011;13160;51.834;4.706;2022-09-12T14:33:51;4.45;;;3.08;;
25213;SDS011;13160;51.834;4.706;2022-09-12T14:36:24;6.88;;;3.67;;
25213;SDS011;13160;51.834;4.706;2022-09-12T14:38:58;4.93;;;2.97;;
25213;SDS011;13160;51.834;4.706;2022-09-12T14:41:30;5.28;;;3.47;;
25213;SDS011;13160;51.834;4.706;2022-09-12T14:44:02;5.20;;;3.20;;
25213;SDS011;13160;51.834;4.706;2022-09-12T14:46:36;5.40;;;3.25;;
25213;SDS011;13160;51.834;4.706;2022-09-12T14:49:06;7.82;;;3.20;;
25213;SDS011;13160;51.834;4.706;2022-09-12T14:51:38;4.32;;;3.15;;
25213;SDS011;13160;51.834;4.706;2022-09-12T14:54:33;4.93;;;3.10;;
25213;SDS011;13160;51.834;4.706;2022-09-12T14:57:05;6.60;;;3.38;;
25213;SDS011;13160;51.834;4.706;2022-09-12T15:00:04;5.35;;;2.70;;
25213;SDS011;13160;51.834;4.706;2022-09-12T15:02:45;6.10;;;2.95;;
25213;SDS011;13160;51.834;4.706;2022-09-12T15:05:22;4.90;;;2.83;;
25213;SDS011;13160;51.834;4.706;2022-09-12T15:07:55;4.50;;;3.00;;
25213;SDS011;13160;51.834;4.706;2022-09-12T15:10:27;4.05;;;2.60;;
25213;SDS011;13160;51.834;4.706;2022-09-12T15:13:12;3.95;;;2.65;;
25213;SDS011;13160;51.834;4.706;2022-09-12T15:15:51;4.68;;;2.38;;
25213;SDS011;13160;51.834;4.706;2022-09-12T15:18:22;4.35;;;2.40;;
25213;SDS011;13160;51.834;4.706;2022-09-12T15:20:53;5.30;;;2.00;;
25213;SDS011;13160;51.834;4.706;2022-09-12T15:23:32;6.00;;;2.58;;
25213;SDS011;13160;51.834;4.706;2022-09-12T15:26:05;4.35;;;2.60;;
25213;SDS011;13160;51.834;4.706;2022-09-12T15:28:36;4.28;;;2.63;;
25213;SDS011;13160;51.834;4.706;2022-09-12T15:31:05;4.97;;;2.40;;
25213;SDS011;13160;51.834;4.706;2022-09-12T15:33:39;5.50;;;2.75;;
25213;SDS011;13160;51.834;4.706;2022-09-12T15:36:10;4.25;;;3.20;;
25213;SDS011;13160;51.834;4.706;2022-09-12T15:38:47;3.97;;;2.60;;
25213;SDS011;13160;51.834;4.706;2022-09-12T15:41:17;7.07;;;3.00;;
25213;SDS011;13160;51.834;4.706;2022-09-12T15:43:47;5.72;;;2.60;;
25213;SDS011;13160;51.834;4.706;2022-09-12T15:46:16;4.00;;;2.58;;
25213;SDS011;13160;51.834;4.706;2022-09-12T15:48:46;4.35;;;2.40;;
25213;SDS011;13160;51.834;4.706;2022-09-12T15:51:16;4.53;;;3.05;;
25213;SDS011;13160;51.834;4.706;2022-09-12T15:53:48;5.43;;;2.53;;
25213;SDS011;13160;51.834;4.706;2022-09-12T15:56:19;4.80;;;2.88;;
25213;SDS011;13160;51.834;4.706;2022-09-12T15:58:52;4.90;;;3.20;;
25213;SDS011;13160;51.834;4.706;2022-09-12T16:01:44;4.68;;;2.90;;
25213;SDS011;13160;51.834;4.706;2022-09-12T16:04:18;6.25;;;3.72;;
25213;SDS011;13160;51.834;4.706;2022-09-12T16:06:50;4.80;;;3.08;;
25213;SDS011;13160;51.834;4.706;2022-09-12T16:09:20;4.85;;;2.85;;
25213;SDS011;13160;51.834;4.706;2022-09-12T16:11:49;3.67;;;2.50;;
25213;SDS011;13160;51.834;4.706;2022-09-12T16:14:18;5.47;;;2.70;;
25213;SDS011;13160;51.834;4.706;2022-09-12T16:16:50;5.75;;;3.30;;
25213;SDS011;13160;51.834;4.706;2022-09-12T16:19:21;4.93;;;3.47;;
25213;SDS011;13160;51.834;4.706;2022-09-12T16:21:49;6.85;;;3.83;;
25213;SDS011;13160;51.834;4.706;2022-09-12T16:24:19;6.03;;;2.30;;
25213;SDS011;13160;51.834;4.706;2022-09-12T16:26:48;5.50;;;2.63;;
25213;SDS011;13160;51.834;4.706;2022-09-12T16:29:16;4.53;;;2.30;;
25213;SDS011;13160;51.834;4.706;2022-09-12T16:31:44;3.67;;;2.30;;
25213;SDS011;13160;51.834;4.706;2022-09-12T16:34:12;3.95;;;2.33;;
25213;SDS011;13160;51.834;4.706;2022-09-12T16:36:41;7.47;;;2.78;;
25213;SDS011;13160;51.834;4.706;2022-09-12T16:39:10;4.32;;;2.40;;
25213;SDS011;13160;51.834;4.706;2022-09-12T16:41:40;4.70;;;2.72;;
25213;SDS011;13160;51.834;4.706;2022-09-12T16:44:10;5.55;;;2.58;;
25213;SDS011;13160;51.834;4.706;2022-09-12T16:46:38;4.25;;;2.65;;
25213;SDS011;13160;51.834;4.706;2022-09-12T16:49:08;5.68;;;2.80;;
25213;SDS011;13160;51.834;4.706;2022-09-12T16:51:37;4.30;;;2.10;;
25213;SDS011;13160;51.834;4.706;2022-09-12T16:54:09;4.65;;;2.50;;
25213;SDS011;13160;51.834;4.706;2022-09-12T16:56:37;4.78;;;2.63;;
25213;SDS011;13160;51.834;4.706;2022-09-12T16:59:07;4.32;;;2.35;;
25213;SDS011;13160;51.834;4.706;2022-09-12T17:01:39;4.63;;;2.50;;
25213;SDS011;13160;51.834;4.706;2022-09-12T17:04:08;3.92;;;2.25;;
25213;SDS011;13160;51.834;4.706;2022-09-12T17:06:37;4.07;;;2.58;;
25213;SDS011;13160;51.834;4.706;2022-09-12T17:09:07;4.93;;;2.70;;
25213;SDS011;13160;51.834;4.706;2022-09-12T17:11:37;5.43;;;2.45;;
25213;SDS011;13160;51.834;4.706;2022-09-12T17:14:07;4.97;;;2.45;;
25213;SDS011;13160;51.834;4.706;2022-09-12T17:16:38;5.90;;;3.03;;
25213;SDS011;13160;51.834;4.706;2022-09-12T17:19:10;4.18;;;2.75;;
25213;SDS011;13160;51.834;4.706;2022-09-12T17:21:42;3.75;;;2.60;;
25213;SDS011;13160;51.834;4.706;2022-09-12T17:24:12;5.07;;;2.40;;
25213;SDS011;13160;51.834;4.706;2022-09-12T17:26:41;4.13;;;2.53;;
25213;SDS011;13160;51.834;4.706;2022-09-12T17:29:11;5.47;;;2.40;;
25213;SDS011;13160;51.834;4.706;2022-09-12T17:31:41;4.03;;;2.40;;
25213;SDS011;13160;51.834;4.706;2022-09-12T17:34:10;5.15;;;2.67;;
25213;SDS011;13160;51.834;4.706;2022-09-12T17:36:41;4.15;;;2.55;;
25213;SDS011;13160;51.834;4.706;2022-09-12T17:39:12;4.00;;;2.30;;
25213;SDS011;13160;51.834;4.706;2022-09-12T17:41:40;6.03;;;2.72;;
25213;SDS011;13160;51.834;4.706;2022-09-12T17:44:13;4.68;;;2.70;;
25213;SDS011;13160;51.834;4.706;2022-09-12T17:46:42;3.45;;;2.30;;
25213;SDS011;13160;51.834;4.706;2022-09-12T17:49:12;5.35;;;2.47;;
25213;SDS011;13160;51.834;4.706;2022-09-12T17:51:50;7.63;;;3.00;;
25213;SDS011;13160;51.834;4.706;2022-09-12T17:54:21;5.40;;;2.72;;
25213;SDS011;13160;51.834;4.706;2022-09-12T17:56:49;5.82;;;2.65;;
25213;SDS011;13160;51.834;4.706;2022-09-12T17:59:20;5.63;;;3.00;;
25213;SDS011;13160;51.834;4.706;2022-09-12T18:01:50;3.75;;;2.55;;
25213;SDS011;13160;51.834;4.706;2022-09-12T18:04:39;4.72;;;2.95;;
25213;SDS011;13160;51.834;4.706;2022-09-12T18:07:11;5.55;;;3.33;;
25213;SDS011;13160;51.834;4.706;2022-09-12T18:09:44;4.20;;;2.63;;
25213;SDS011;13160;51.834;4.706;2022-09-12T18:12:20;4.10;;;2.67;;
25213;SDS011;13160;51.834;4.706;2022-09-12T18:15:07;5.38;;;2.72;;
25213;SDS011;13160;51.834;4.706;2022-09-12T18:17:38;4.68;;;2.90;;
25213;SDS011;13160;51.834;4.706;2022-09-12T18:20:10;4.07;;;2.70;;
25213;SDS011;13160;51.834;4.706;2022-09-12T18:22:39;6.95;;;3.40;;
25213;SDS011;13160;51.834;4.706;2022-09-12T18:25:07;6.53;;;3.15;;
25213;SDS011;13160;51.834;4.706;2022-09-12T18:27:36;5.45;;;3.33;;
25213;SDS011;13160;51.834;4.706;2022-09-12T18:30:08;8.20;;;3.28;;
25213;SDS011;13160;51.834;4.706;2022-09-12T18:32:47;5.97;;;3.38;;
25213;SDS011;13160;51.834;4.706;2022-09-12T18:35:16;6.10;;;3.33;;
25213;SDS011;13160;51.834;4.706;2022-09-12T18:37:45;6.82;;;3.35;;
25213;SDS011;13160;51.834;4.706;2022-09-12T18:40:15;7.43;;;3.50;;
25213;SDS011;13160;51.834;4.706;2022-09-12T18:43:34;6.88;;;3.10;;
25213;SDS011;13160;51.834;4.706;2022-09-12T18:46:06;6.60;;;3.20;;
25213;SDS011;13160;51.834;4.706;2022-09-12T18:48:40;6.93;;;4.03;;
